createdAt,value
2019-04-28T00:00:23.204Z,990.38
2019-04-28T00:01:23.426Z,990.36
2019-04-28T00:02:23.653Z,990.34
2019-04-28T00:03:23.873Z,990.34
2019-04-28T00:04:24.108Z,990.33
2019-04-28T00:05:24.321Z,990.34
2019-04-28T00:06:24.546Z,990.33
2019-04-28T00:07:24.778Z,990.33
2019-04-28T00:08:24.994Z,990.35
2019-04-28T00:09:25.217Z,990.36
2019-04-28T00:10:25.442Z,990.34
2019-04-28T00:11:25.663Z,990.34
2019-04-28T00:12:25.884Z,990.35
2019-04-28T00:13:26.108Z,990.35
2019-04-28T00:14:26.337Z,990.32
2019-04-28T00:15:26.557Z,990.32
2019-04-28T00:16:26.780Z,990.35
2019-04-28T00:17:27.004Z,990.32
2019-04-28T00:18:27.241Z,990.32
2019-04-28T00:19:27.452Z,990.35
2019-04-28T00:20:27.676Z,990.33
2019-04-28T00:21:27.895Z,990.36
2019-04-28T00:22:28.120Z,990.35
2019-04-28T00:23:28.341Z,990.34
2019-04-28T00:24:28.564Z,990.34
2019-04-28T00:25:28.787Z,990.36
2019-04-28T00:26:30.982Z,990.40
2019-04-28T00:27:29.237Z,990.36
2019-04-28T00:28:31.106Z,990.33
2019-04-28T00:29:38.486Z,990.39
2019-04-28T00:30:31.624Z,990.40
2019-04-28T00:31:31.250Z,990.38
2019-04-28T00:32:30.464Z,990.38
2019-04-28T00:33:31.420Z,990.40
2019-04-28T00:34:31.177Z,990.36
2019-04-28T00:35:31.887Z,990.37
2019-04-28T00:36:31.418Z,990.39
2019-04-28T00:37:32.023Z,990.37
2019-04-28T00:38:31.732Z,990.35
2019-04-28T00:39:31.924Z,990.36
2019-04-28T00:40:32.150Z,990.37
2019-04-28T00:41:32.374Z,990.36
2019-04-28T00:42:32.600Z,990.36
2019-04-28T00:43:32.822Z,990.36
2019-04-28T00:44:33.047Z,990.34
2019-04-28T00:45:33.269Z,990.33
2019-04-28T00:46:33.494Z,990.36
2019-04-28T00:47:33.718Z,990.35
2019-04-28T00:48:33.943Z,990.41
2019-04-28T00:49:34.166Z,990.38
2019-04-28T00:50:34.389Z,990.37
2019-04-28T00:51:34.614Z,990.40
2019-04-28T00:52:34.837Z,990.39
2019-04-28T00:53:35.054Z,990.39
2019-04-28T00:54:35.281Z,990.40
2019-04-28T00:55:35.505Z,990.41
2019-04-28T00:56:35.728Z,990.40
2019-04-28T00:57:35.956Z,990.41
2019-04-28T00:58:36.176Z,990.41
2019-04-28T00:59:36.398Z,990.39
2019-04-28T01:00:36.624Z,990.42
2019-04-28T01:01:36.849Z,990.43
2019-04-28T01:02:37.074Z,990.40
2019-04-28T01:03:37.295Z,990.40
2019-04-28T01:04:37.519Z,990.41
2019-04-28T01:05:37.745Z,990.38
2019-04-28T01:06:37.967Z,990.38
2019-04-28T01:07:38.194Z,990.37
2019-04-28T01:08:38.418Z,990.36
2019-04-28T01:09:38.643Z,990.38
2019-04-28T01:10:40.885Z,990.36
2019-04-28T01:11:39.092Z,990.37
2019-04-28T01:12:41.040Z,990.40
2019-04-28T01:13:41.795Z,990.35
2019-04-28T01:14:40.946Z,990.31
2019-04-28T01:15:39.991Z,990.34
2019-04-28T01:16:40.225Z,990.37
2019-04-28T01:17:40.425Z,990.37
2019-04-28T01:18:40.659Z,990.36
2019-04-28T01:19:40.880Z,990.35
2019-04-28T01:20:41.105Z,990.35
2019-04-28T01:21:41.648Z,990.33
2019-04-28T01:22:41.548Z,990.34
2019-04-28T01:23:41.779Z,990.36
2019-04-28T01:24:42.008Z,990.34
2019-04-28T01:25:42.234Z,990.33
2019-04-28T01:26:42.450Z,990.32
2019-04-28T01:27:42.680Z,990.34
2019-04-28T01:28:42.897Z,990.34
2019-04-28T01:29:43.122Z,990.36
2019-04-28T01:30:43.343Z,990.33
2019-04-28T01:31:43.565Z,990.36
2019-04-28T01:32:43.790Z,990.34
2019-04-28T01:33:44.013Z,990.36
2019-04-28T01:34:44.238Z,990.35
2019-04-28T01:35:44.465Z,990.36
2019-04-28T01:36:44.685Z,990.36
2019-04-28T01:37:44.909Z,990.36
2019-04-28T01:38:45.136Z,990.40
2019-04-28T01:39:45.358Z,990.41
2019-04-28T01:40:45.584Z,990.40
2019-04-28T01:41:45.808Z,990.43
2019-04-28T01:42:46.033Z,990.43
2019-04-28T01:43:46.257Z,990.46
2019-04-28T01:44:46.482Z,990.45
2019-04-28T01:45:46.715Z,990.43
2019-04-28T01:46:46.931Z,990.46
2019-04-28T01:47:47.156Z,990.46
2019-04-28T01:48:47.383Z,990.47
2019-04-28T01:49:47.608Z,990.47
2019-04-28T01:50:47.830Z,990.49
2019-04-28T01:51:48.052Z,990.52
2019-04-28T01:52:49.721Z,990.52
2019-04-28T01:53:50.403Z,990.50
2019-04-28T01:54:50.207Z,990.53
2019-04-28T01:55:49.520Z,990.53
2019-04-28T01:56:50.227Z,990.53
2019-04-28T01:57:49.853Z,990.55
2019-04-28T01:58:49.948Z,990.55
2019-04-28T01:59:50.033Z,990.53
2019-04-28T02:00:50.550Z,990.56
2019-04-28T02:01:50.297Z,990.52
2019-04-28T02:02:50.664Z,990.53
2019-04-28T02:03:50.747Z,990.55
2019-04-28T02:04:50.969Z,990.57
2019-04-28T02:05:51.202Z,990.57
2019-04-28T02:06:51.415Z,990.57
2019-04-28T02:07:51.643Z,990.59
2019-04-28T02:08:51.858Z,990.62
2019-04-28T02:09:52.081Z,990.65
2019-04-28T02:10:52.298Z,990.67
2019-04-28T02:11:52.535Z,990.68
2019-04-28T02:12:52.759Z,990.67
2019-04-28T02:13:52.991Z,990.66
2019-04-28T02:14:53.199Z,990.65
2019-04-28T02:15:53.427Z,990.67
2019-04-28T02:16:53.659Z,990.67
2019-04-28T02:17:53.876Z,990.67
2019-04-28T02:18:54.101Z,990.71
2019-04-28T02:19:54.329Z,990.72
2019-04-28T02:20:54.557Z,990.71
2019-04-28T02:21:54.774Z,990.73
2019-04-28T02:22:54.998Z,990.72
2019-04-28T02:23:55.223Z,990.74
2019-04-28T02:24:55.446Z,990.71
2019-04-28T02:25:55.673Z,990.76
2019-04-28T02:26:55.901Z,990.76
2019-04-28T02:27:57.178Z,990.75
2019-04-28T02:28:56.341Z,990.76
2019-04-28T02:29:56.567Z,990.76
2019-04-28T02:30:56.795Z,990.77
2019-04-28T02:31:57.014Z,990.72
2019-04-28T02:32:57.240Z,990.75
2019-04-28T02:33:57.464Z,990.74
2019-04-28T02:35:00.814Z,990.75
2019-04-28T02:35:57.913Z,990.75
2019-04-28T02:37:01.016Z,990.74
2019-04-28T02:38:00.040Z,990.74
2019-04-28T02:39:00.653Z,990.72
2019-04-28T02:40:02.941Z,990.75
2019-04-28T02:41:00.155Z,990.72
2019-04-28T02:42:01.372Z,990.74
2019-04-28T02:43:01.306Z,990.75
2019-04-28T02:44:00.919Z,990.73
2019-04-28T02:45:00.556Z,990.76
2019-04-28T02:46:00.783Z,990.76
2019-04-28T02:47:01.013Z,990.78
2019-04-28T02:48:01.086Z,990.78
2019-04-28T02:49:00.993Z,990.79
2019-04-28T02:50:01.110Z,990.76
2019-04-28T02:51:01.374Z,990.77
2019-04-28T02:52:02.974Z,990.77
2019-04-28T02:53:02.086Z,990.76
2019-04-28T02:54:01.947Z,990.79
2019-04-28T02:55:03.061Z,990.81
2019-04-28T02:56:02.413Z,990.79
2019-04-28T02:57:02.618Z,990.82
2019-04-28T02:58:02.865Z,990.81
2019-04-28T02:59:03.059Z,990.86
2019-04-28T03:00:03.293Z,990.81
2019-04-28T03:01:15.264Z,990.80
2019-04-28T03:02:03.734Z,990.80
2019-04-28T03:03:03.957Z,990.84
2019-04-28T03:04:04.182Z,990.82
2019-04-28T03:05:04.408Z,990.81
2019-04-28T03:06:04.632Z,990.78
2019-04-28T03:07:04.868Z,990.76
2019-04-28T03:08:05.081Z,990.78
2019-04-28T03:09:05.303Z,990.78
2019-04-28T03:10:05.537Z,990.79
2019-04-28T03:11:05.747Z,990.74
2019-04-28T03:12:05.972Z,990.77
2019-04-28T03:13:06.194Z,990.78
2019-04-28T03:14:06.419Z,990.77
2019-04-28T03:15:06.639Z,990.77
2019-04-28T03:16:06.863Z,990.80
2019-04-28T03:17:07.090Z,990.80
2019-04-28T03:18:07.313Z,990.75
2019-04-28T03:19:07.534Z,990.80
2019-04-28T03:20:10.765Z,990.81
2019-04-28T03:21:07.985Z,990.82
2019-04-28T03:22:11.244Z,990.84
2019-04-28T03:23:09.901Z,990.83
2019-04-28T03:24:10.996Z,990.85
2019-04-28T03:25:10.918Z,990.87
2019-04-28T03:26:11.197Z,990.88
2019-04-28T03:27:10.808Z,990.85
2019-04-28T03:28:12.002Z,990.88
2019-04-28T03:29:10.891Z,990.88
2019-04-28T03:30:13.219Z,990.91
2019-04-28T03:31:40.609Z,990.89
2019-04-28T03:32:31.036Z,990.94
2019-04-28T03:33:18.160Z,990.95
2019-04-28T03:34:12.985Z,990.92
2019-04-28T03:35:12.962Z,990.96
2019-04-28T03:36:15.420Z,990.95
2019-04-28T03:37:11.574Z,990.94
2019-04-28T03:38:11.810Z,990.93
2019-04-28T03:39:12.024Z,990.96
2019-04-28T03:40:12.247Z,990.92
2019-04-28T03:41:12.472Z,990.98
2019-04-28T03:42:12.695Z,990.95
2019-04-28T03:43:14.190Z,990.96
2019-04-28T03:44:13.152Z,990.96
2019-04-28T03:45:13.370Z,990.95
2019-04-28T03:46:13.598Z,990.95
2019-04-28T03:47:13.822Z,990.95
2019-04-28T03:48:14.041Z,990.95
2019-04-28T03:49:14.270Z,990.95
2019-04-28T03:50:14.489Z,990.95
2019-04-28T03:51:14.714Z,990.97
2019-04-28T03:52:14.937Z,990.97
2019-04-28T03:53:15.160Z,990.97
2019-04-28T03:54:15.386Z,990.94
2019-04-28T03:55:15.613Z,990.97
2019-04-28T03:56:15.830Z,990.93
2019-04-28T03:57:16.053Z,990.96
2019-04-28T03:58:16.282Z,990.98
2019-04-28T03:59:16.507Z,990.97
2019-04-28T04:00:16.730Z,990.97
2019-04-28T04:01:16.985Z,991.00
2019-04-28T04:02:17.181Z,990.98
2019-04-28T04:03:17.402Z,991.00
2019-04-28T04:04:17.629Z,991.01
2019-04-28T04:05:20.612Z,990.99
2019-04-28T04:06:18.079Z,991.01
2019-04-28T04:07:21.225Z,991.00
2019-04-28T04:08:20.859Z,991.01
2019-04-28T04:09:21.582Z,991.04
2019-04-28T04:10:20.678Z,991.01
2019-04-28T04:11:20.217Z,991.02
2019-04-28T04:12:21.161Z,991.04
2019-04-28T04:13:20.160Z,991.05
2019-04-28T04:14:21.105Z,991.05
2019-04-28T04:15:21.312Z,991.05
2019-04-28T04:16:20.842Z,991.05
2019-04-28T04:17:21.215Z,991.08
2019-04-28T04:18:21.197Z,991.06
2019-04-28T04:19:20.991Z,991.10
2019-04-28T04:20:23.790Z,991.09
2019-04-28T04:21:21.685Z,991.08
2019-04-28T04:22:21.662Z,991.08
2019-04-28T04:23:23.339Z,991.06
2019-04-28T04:24:22.119Z,991.11
2019-04-28T04:25:22.335Z,991.09
2019-04-28T04:26:22.553Z,991.15
2019-04-28T04:27:22.779Z,991.07
2019-04-28T04:28:23.000Z,991.09
2019-04-28T04:29:23.226Z,991.05
2019-04-28T04:30:23.448Z,991.09
2019-04-28T04:31:23.676Z,991.07
2019-04-28T04:32:26.949Z,991.08
2019-04-28T04:33:24.124Z,991.07
2019-04-28T04:34:24.346Z,991.10
2019-04-28T04:35:24.571Z,991.08
2019-04-28T04:36:24.793Z,991.13
2019-04-28T04:37:25.018Z,991.16
2019-04-28T04:38:25.249Z,991.15
2019-04-28T04:39:25.461Z,991.17
2019-04-28T04:40:25.687Z,991.17
2019-04-28T04:41:25.912Z,991.20
2019-04-28T04:42:26.129Z,991.21
2019-04-28T04:43:26.354Z,991.19
2019-04-28T04:44:26.579Z,991.18
2019-04-28T04:45:26.804Z,991.21
2019-04-28T04:46:27.026Z,991.24
2019-04-28T04:47:27.256Z,991.25
2019-04-28T04:48:27.480Z,991.27
2019-04-28T04:49:27.701Z,991.22
2019-04-28T04:50:27.925Z,991.26
2019-04-28T04:51:30.097Z,991.27
2019-04-28T04:52:30.379Z,991.29
2019-04-28T04:53:30.776Z,991.32
2019-04-28T04:54:32.104Z,991.32
2019-04-28T04:55:30.801Z,991.34
2019-04-28T04:56:30.153Z,991.36
2019-04-28T04:57:32.350Z,991.38
2019-04-28T04:58:30.470Z,991.44
2019-04-28T04:59:30.219Z,991.43
2019-04-28T05:00:30.635Z,991.44
2019-04-28T05:01:30.484Z,991.47
2019-04-28T05:02:33.032Z,991.46
2019-04-28T05:03:31.399Z,991.48
2019-04-28T05:04:31.067Z,991.47
2019-04-28T05:05:31.292Z,991.48
2019-04-28T05:06:31.518Z,991.47
2019-04-28T05:07:31.743Z,991.52
2019-04-28T05:08:31.966Z,991.53
2019-04-28T05:09:32.190Z,991.52
2019-04-28T05:10:32.419Z,991.50
2019-04-28T05:11:32.642Z,991.54
2019-04-28T05:12:32.859Z,991.53
2019-04-28T05:13:33.082Z,991.57
2019-04-28T05:14:33.307Z,991.58
2019-04-28T05:15:33.536Z,991.57
2019-04-28T05:16:33.756Z,991.54
2019-04-28T05:17:33.981Z,991.58
2019-04-28T05:18:34.205Z,991.62
2019-04-28T05:19:34.431Z,991.64
2019-04-28T05:20:34.655Z,991.63
2019-04-28T05:21:34.880Z,991.63
2019-04-28T05:22:35.105Z,991.61
2019-04-28T05:23:35.330Z,991.67
2019-04-28T05:24:35.555Z,991.68
2019-04-28T05:25:35.778Z,991.65
2019-04-28T05:26:36.006Z,991.67
2019-04-28T05:27:36.232Z,991.68
2019-04-28T05:28:40.737Z,991.70
2019-04-28T05:29:36.675Z,991.72
2019-04-28T05:30:39.706Z,991.72
2019-04-28T05:31:37.125Z,991.70
2019-04-28T05:32:44.791Z,991.70
2019-04-28T05:33:39.612Z,991.75
2019-04-28T05:34:39.804Z,991.78
2019-04-28T05:35:39.611Z,991.79
2019-04-28T05:36:42.486Z,991.84
2019-04-28T05:37:40.323Z,991.85
2019-04-28T05:38:40.477Z,991.96
2019-04-28T05:39:40.515Z,991.96
2019-04-28T05:40:39.924Z,991.97
2019-04-28T05:41:39.971Z,991.92
2019-04-28T05:42:39.605Z,991.91
2019-04-28T05:43:40.478Z,991.90
2019-04-28T05:44:40.815Z,991.86
2019-04-28T05:45:40.282Z,991.91
2019-04-28T05:46:40.509Z,991.85
2019-04-28T05:47:40.907Z,991.87
2019-04-28T05:48:40.980Z,991.85
2019-04-28T05:49:41.191Z,991.87
2019-04-28T05:50:41.417Z,991.88
2019-04-28T05:51:41.644Z,991.85
2019-04-28T05:52:41.869Z,991.90
2019-04-28T05:53:42.098Z,991.89
2019-04-28T05:54:42.325Z,991.91
2019-04-28T05:55:42.575Z,991.91
2019-04-28T05:56:42.786Z,991.89
2019-04-28T05:57:43.010Z,991.92
2019-04-28T05:58:43.238Z,991.95
2019-04-28T05:59:43.466Z,991.95
2019-04-28T06:00:43.698Z,991.98
2019-04-28T06:01:43.925Z,991.99
2019-04-28T06:02:55.593Z,991.99
2019-04-28T06:03:44.379Z,991.99
2019-04-28T06:04:44.606Z,992.02
2019-04-28T06:05:44.830Z,992.03
2019-04-28T06:06:45.057Z,992.00
2019-04-28T06:07:45.285Z,992.03
2019-04-28T06:08:45.511Z,992.02
2019-04-28T06:09:45.737Z,992.05
2019-04-28T06:10:45.969Z,992.04
2019-04-28T06:11:46.192Z,992.01
2019-04-28T06:12:46.418Z,992.03
2019-04-28T06:13:46.647Z,992.00
2019-04-28T06:14:46.870Z,992.02
2019-04-28T06:15:47.095Z,992.00
2019-04-28T06:16:47.322Z,992.04
2019-04-28T06:17:47.549Z,992.05
2019-04-28T06:18:49.990Z,992.02
2019-04-28T06:19:48.004Z,992.03
2019-04-28T06:20:49.763Z,992.02
2019-04-28T06:21:48.459Z,992.06
2019-04-28T06:22:48.684Z,992.09
2019-04-28T06:23:48.912Z,992.09
2019-04-28T06:24:49.135Z,992.08
2019-04-28T06:25:49.363Z,992.09
2019-04-28T06:26:49.590Z,992.07
2019-04-28T06:27:49.817Z,992.09
2019-04-28T06:28:50.044Z,992.12
2019-04-28T06:29:50.270Z,992.10
2019-04-28T06:30:50.496Z,992.10
2019-04-28T06:31:50.721Z,992.13
2019-04-28T06:32:50.950Z,992.13
2019-04-28T06:33:51.177Z,992.14
2019-04-28T06:34:51.404Z,992.16
2019-04-28T06:35:51.630Z,992.10
2019-04-28T06:36:51.855Z,992.11
2019-04-28T06:37:52.084Z,992.17
2019-04-28T06:38:52.309Z,992.13
2019-04-28T06:39:52.536Z,992.17
2019-04-28T06:40:52.761Z,992.07
2019-04-28T06:41:52.989Z,992.13
2019-04-28T06:42:53.217Z,992.10
2019-04-28T06:43:53.445Z,992.12
2019-04-28T06:44:53.669Z,992.11
2019-04-28T06:45:53.898Z,992.08
2019-04-28T06:46:54.163Z,992.07
2019-04-28T06:47:54.344Z,992.08
2019-04-28T06:48:54.570Z,992.09
2019-04-28T06:49:54.797Z,992.11
2019-04-28T06:50:55.022Z,992.06
2019-04-28T06:51:55.250Z,992.12
2019-04-28T06:52:55.479Z,992.07
2019-04-28T06:53:55.702Z,992.11
2019-04-28T06:54:55.929Z,992.11
2019-04-28T06:55:56.155Z,992.10
2019-04-28T06:56:56.383Z,992.15
2019-04-28T06:57:56.609Z,992.18
2019-04-28T06:58:59.291Z,992.20
2019-04-28T06:59:57.060Z,992.24
2019-04-28T07:00:57.287Z,992.20
2019-04-28T07:01:57.513Z,992.25
2019-04-28T07:02:57.743Z,992.21
2019-04-28T07:03:57.966Z,992.24
2019-04-28T07:05:02.113Z,992.25
2019-04-28T07:05:58.417Z,992.30
2019-04-28T07:06:58.644Z,992.29
2019-04-28T07:07:58.867Z,992.32
2019-04-28T07:08:59.098Z,992.33
2019-04-28T07:09:59.323Z,992.33
2019-04-28T07:10:59.548Z,992.34
2019-04-28T07:11:59.776Z,992.31
2019-04-28T07:13:00.001Z,992.34
2019-04-28T07:14:00.229Z,992.34
2019-04-28T07:15:00.458Z,992.31
2019-04-28T07:16:00.681Z,992.35
2019-04-28T07:17:00.906Z,992.32
2019-04-28T07:18:01.134Z,992.36
2019-04-28T07:19:01.366Z,992.36
2019-04-28T07:20:01.585Z,992.33
2019-04-28T07:21:01.812Z,992.35
2019-04-28T07:22:02.036Z,992.35
2019-04-28T07:23:02.265Z,992.33
2019-04-28T07:24:02.484Z,992.33
2019-04-28T07:25:02.710Z,992.39
2019-04-28T07:26:02.937Z,992.35
2019-04-28T07:27:03.160Z,992.35
2019-04-28T07:28:03.389Z,992.35
2019-04-28T07:29:03.614Z,992.37
2019-04-28T07:30:03.838Z,992.40
2019-04-28T07:31:04.065Z,992.40
2019-04-28T07:32:04.290Z,992.43
2019-04-28T07:33:04.515Z,992.42
2019-04-28T07:34:04.741Z,992.42
2019-04-28T07:35:04.968Z,992.40
2019-04-28T07:36:05.189Z,992.46
2019-04-28T07:37:05.417Z,992.43
2019-04-28T07:38:05.641Z,992.46
2019-04-28T07:39:05.870Z,992.43
2019-04-28T07:40:06.252Z,992.47
2019-04-28T07:41:06.318Z,992.52
2019-04-28T07:42:06.545Z,992.51
2019-04-28T07:43:06.773Z,992.56
2019-04-28T07:44:07.003Z,992.54
2019-04-28T07:45:07.226Z,992.56
2019-04-28T07:46:07.452Z,992.57
2019-04-28T07:47:07.677Z,992.55
2019-04-28T07:48:07.899Z,992.58
2019-04-28T07:49:08.124Z,992.60
2019-04-28T07:50:08.350Z,992.67
2019-04-28T07:51:08.578Z,992.70
2019-04-28T07:52:08.804Z,992.66
2019-04-28T07:53:09.036Z,992.71
2019-04-28T07:54:09.261Z,992.71
2019-04-28T07:55:09.486Z,992.76
2019-04-28T07:56:09.708Z,992.74
2019-04-28T07:57:09.934Z,992.74
2019-04-28T07:58:10.162Z,992.76
2019-04-28T07:59:10.389Z,992.78
2019-04-28T08:00:10.616Z,992.83
2019-04-28T08:01:10.844Z,992.86
2019-04-28T08:02:11.066Z,992.85
2019-04-28T08:03:11.292Z,992.79
2019-04-28T08:04:11.522Z,992.80
2019-04-28T08:05:11.747Z,992.90
2019-04-28T08:06:11.979Z,992.84
2019-04-28T08:07:12.199Z,992.85
2019-04-28T08:08:12.424Z,992.83
2019-04-28T08:09:12.651Z,992.88
2019-04-28T08:10:12.871Z,992.85
2019-04-28T08:11:13.096Z,992.86
2019-04-28T08:12:13.325Z,992.96
2019-04-28T08:13:13.550Z,992.89
2019-04-28T08:14:13.776Z,992.95
2019-04-28T08:15:14.002Z,992.89
2019-04-28T08:16:14.228Z,992.90
2019-04-28T08:17:14.456Z,992.86
2019-04-28T08:18:14.683Z,992.87
2019-04-28T08:19:14.908Z,992.92
2019-04-28T08:20:15.138Z,992.89
2019-04-28T08:21:15.360Z,992.90
2019-04-28T08:22:15.593Z,992.93
2019-04-28T08:23:15.818Z,992.94
2019-04-28T08:24:16.043Z,992.94
2019-04-28T08:25:16.274Z,992.97
2019-04-28T08:26:16.499Z,992.96
2019-04-28T08:27:16.725Z,992.94
2019-04-28T08:28:16.954Z,992.93
2019-04-28T08:29:17.181Z,992.94
2019-04-28T08:30:17.409Z,992.95
2019-04-28T08:31:17.637Z,992.97
2019-04-28T08:32:17.865Z,992.97
2019-04-28T08:33:18.095Z,992.99
2019-04-28T08:34:18.324Z,993.07
2019-04-28T08:35:18.553Z,993.07
2019-04-28T08:36:18.781Z,993.06
2019-04-28T08:37:19.007Z,993.04
2019-04-28T08:38:19.234Z,993.07
2019-04-28T08:39:19.463Z,993.10
2019-04-28T08:40:19.690Z,993.07
2019-04-28T08:41:19.920Z,993.08
2019-04-28T08:42:20.153Z,993.06
2019-04-28T08:43:20.385Z,993.06
2019-04-28T08:44:20.603Z,993.10
2019-04-28T08:45:20.831Z,993.08
2019-04-28T08:46:21.060Z,993.05
2019-04-28T08:47:21.289Z,993.04
2019-04-28T08:48:21.513Z,993.07
2019-04-28T08:49:21.739Z,993.05
2019-04-28T08:50:21.971Z,993.01
2019-04-28T08:51:22.195Z,993.04
2019-04-28T08:52:22.424Z,993.04
2019-04-28T08:53:22.652Z,993.08
2019-04-28T08:54:22.882Z,993.09
2019-04-28T08:55:23.108Z,993.08
2019-04-28T08:56:23.335Z,993.07
2019-04-28T08:57:23.575Z,993.12
2019-04-28T08:58:23.786Z,993.11
2019-04-28T08:59:24.016Z,993.11
2019-04-28T09:00:24.244Z,993.11
2019-04-28T09:01:24.472Z,993.13
2019-04-28T09:02:24.698Z,993.09
2019-04-28T09:03:24.926Z,993.14
2019-04-28T09:04:25.158Z,993.18
2019-04-28T09:05:25.383Z,993.18
2019-04-28T09:06:25.612Z,993.16
2019-04-28T09:07:25.867Z,993.18
2019-04-28T09:08:26.092Z,993.18
2019-04-28T09:09:26.321Z,993.17
2019-04-28T09:10:26.549Z,993.15
2019-04-28T09:11:26.780Z,993.15
2019-04-28T09:12:27.009Z,993.19
2019-04-28T09:13:27.240Z,993.17
2019-04-28T09:14:27.464Z,993.21
2019-04-28T09:15:27.698Z,993.18
2019-04-28T09:16:27.942Z,993.17
2019-04-28T09:17:28.159Z,993.11
2019-04-28T09:18:28.385Z,993.16
2019-04-28T09:19:28.626Z,993.23
2019-04-28T09:20:28.836Z,993.17
2019-04-28T09:21:29.065Z,993.16
2019-04-28T09:22:29.305Z,993.22
2019-04-28T09:23:29.539Z,993.24
2019-04-28T09:24:29.767Z,993.21
2019-04-28T09:25:30.007Z,993.22
2019-04-28T09:26:30.234Z,993.19
2019-04-28T09:27:30.449Z,993.20
2019-04-28T09:28:30.680Z,993.16
2019-04-28T09:29:30.902Z,993.19
2019-04-28T09:30:31.130Z,993.18
2019-04-28T09:31:31.359Z,993.19
2019-04-28T09:32:31.590Z,993.11
2019-04-28T09:33:31.819Z,993.12
2019-04-28T09:34:32.048Z,993.11
2019-04-28T09:35:32.274Z,993.08
2019-04-28T09:36:32.501Z,993.06
2019-04-28T09:37:32.732Z,993.08
2019-04-28T09:38:32.963Z,993.05
2019-04-28T09:39:33.203Z,993.07
2019-04-28T09:40:33.431Z,993.08
2019-04-28T09:41:33.658Z,993.10
2019-04-28T09:42:33.885Z,993.13
2019-04-28T09:43:34.113Z,993.14
2019-04-28T09:44:34.341Z,993.13
2019-04-28T09:45:34.569Z,993.14
2019-04-28T09:46:34.796Z,993.13
2019-04-28T09:47:35.060Z,993.15
2019-04-28T09:48:35.256Z,993.15
2019-04-28T09:49:35.466Z,993.09
2019-04-28T09:50:35.696Z,993.15
2019-04-28T09:51:35.926Z,993.16
2019-04-28T09:52:36.147Z,993.16
2019-04-28T09:53:36.384Z,993.15
2019-04-28T09:54:36.609Z,993.17
2019-04-28T09:55:36.841Z,993.16
2019-04-28T09:56:37.067Z,993.15
2019-04-28T09:57:37.296Z,993.17
2019-04-28T09:58:37.527Z,993.14
2019-04-28T09:59:37.756Z,993.15
2019-04-28T10:00:37.980Z,993.15
2019-04-28T10:01:38.209Z,993.12
2019-04-28T10:02:38.438Z,993.16
2019-04-28T10:03:38.668Z,993.16
2019-04-28T10:04:41.615Z,993.13
2019-04-28T10:05:39.121Z,993.15
2019-04-28T10:06:39.349Z,993.18
2019-04-28T10:07:39.581Z,993.21
2019-04-28T10:08:39.813Z,993.22
2019-04-28T10:09:40.035Z,993.24
2019-04-28T10:10:40.268Z,993.27
2019-04-28T10:11:40.493Z,993.27
2019-04-28T10:12:40.726Z,993.24
2019-04-28T10:13:40.954Z,993.29
2019-04-28T10:14:41.180Z,993.30
2019-04-28T10:15:41.412Z,993.27
2019-04-28T10:16:41.636Z,993.30
2019-04-28T10:17:41.883Z,993.30
2019-04-28T10:18:42.107Z,993.30
2019-04-28T10:19:42.334Z,993.32
2019-04-28T10:20:42.563Z,993.32
2019-04-28T10:21:42.783Z,993.29
2019-04-28T10:22:43.058Z,993.32
2019-04-28T10:23:43.239Z,993.30
2019-04-28T10:24:43.471Z,993.27
2019-04-28T10:25:43.686Z,993.28
2019-04-28T10:26:43.922Z,993.31
2019-04-28T10:27:44.154Z,993.26
2019-04-28T10:28:44.386Z,993.24
2019-04-28T10:29:44.614Z,993.20
2019-04-28T10:30:44.845Z,993.18
2019-04-28T10:31:45.081Z,993.22
2019-04-28T10:32:45.309Z,993.26
2019-04-28T10:33:45.535Z,993.28
2019-04-28T10:34:54.693Z,993.28
2019-04-28T10:35:45.993Z,993.30
2019-04-28T10:36:46.217Z,993.31
2019-04-28T10:37:46.447Z,993.31
2019-04-28T10:38:46.676Z,993.33
2019-04-28T10:39:46.906Z,993.31
2019-04-28T10:40:47.136Z,993.33
2019-04-28T10:41:47.365Z,993.32
2019-04-28T10:42:47.593Z,993.29
2019-04-28T10:43:47.823Z,993.28
2019-04-28T10:44:48.077Z,993.29
2019-04-28T10:45:48.308Z,993.27
2019-04-28T10:46:48.529Z,993.24
2019-04-28T10:47:48.755Z,993.25
2019-04-28T10:48:48.984Z,993.22
2019-04-28T10:49:49.248Z,993.25
2019-04-28T10:50:49.406Z,993.25
2019-04-28T10:51:59.238Z,993.25
2019-04-28T10:52:49.864Z,993.28
2019-04-28T10:53:50.093Z,993.30
2019-04-28T10:54:50.320Z,993.30
2019-04-28T10:55:50.548Z,993.29
2019-04-28T10:56:50.784Z,993.31
2019-04-28T10:57:51.011Z,993.31
2019-04-28T10:58:51.248Z,993.29
2019-04-28T10:59:51.475Z,993.29
2019-04-28T11:00:51.707Z,993.31
2019-04-28T11:01:51.936Z,993.28
2019-04-28T11:02:52.162Z,993.26
2019-04-28T11:03:52.392Z,993.27
2019-04-28T11:04:52.621Z,993.26
2019-04-28T11:05:52.850Z,993.22
2019-04-28T11:06:53.079Z,993.25
2019-04-28T11:07:53.308Z,993.26
2019-04-28T11:08:53.534Z,993.27
2019-04-28T11:09:53.765Z,993.31
2019-04-28T11:10:53.999Z,993.29
2019-04-28T11:11:54.202Z,993.35
2019-04-28T11:12:54.435Z,993.36
2019-04-28T11:13:54.664Z,993.34
2019-04-28T11:14:54.889Z,993.36
2019-04-28T11:15:55.118Z,993.36
2019-04-28T11:16:55.348Z,993.33
2019-04-28T11:17:55.575Z,993.33
2019-04-28T11:18:55.804Z,993.41
2019-04-28T11:19:56.041Z,993.42
2019-04-28T11:20:56.288Z,993.39
2019-04-28T11:21:56.513Z,993.41
2019-04-28T11:22:56.742Z,993.38
2019-04-28T11:23:56.969Z,993.41
2019-04-28T11:24:57.196Z,993.38
2019-04-28T11:25:57.425Z,993.41
2019-04-28T11:26:57.655Z,993.39
2019-04-28T11:27:57.887Z,993.39
2019-04-28T11:28:58.111Z,993.38
2019-04-28T11:29:58.387Z,993.35
2019-04-28T11:30:58.564Z,993.34
2019-04-28T11:31:58.795Z,993.32
2019-04-28T11:32:59.028Z,993.37
2019-04-28T11:33:59.980Z,993.35
2019-04-28T11:34:59.481Z,993.34
2019-04-28T11:35:59.707Z,993.34
2019-04-28T11:36:59.948Z,993.39
2019-04-28T11:38:00.168Z,993.40
2019-04-28T11:39:00.386Z,993.37
2019-04-28T11:40:00.605Z,993.34
2019-04-28T11:41:00.830Z,993.34
2019-04-28T11:42:01.057Z,993.34
2019-04-28T11:43:01.289Z,993.33
2019-04-28T11:44:01.510Z,993.30
2019-04-28T11:45:01.746Z,993.32
2019-04-28T11:46:01.973Z,993.33
2019-04-28T11:47:02.203Z,993.40
2019-04-28T11:48:02.421Z,993.38
2019-04-28T11:49:02.657Z,993.43
2019-04-28T11:50:02.886Z,993.42
2019-04-28T11:51:03.112Z,993.36
2019-04-28T11:52:03.343Z,993.34
2019-04-28T11:53:03.551Z,993.34
2019-04-28T11:54:03.794Z,993.29
2019-04-28T11:55:04.042Z,993.33
2019-04-28T11:56:04.276Z,993.35
2019-04-28T11:57:04.504Z,993.36
2019-04-28T11:58:04.739Z,993.37
2019-04-28T11:59:04.970Z,993.34
2019-04-28T12:00:05.193Z,993.32
2019-04-28T12:01:05.423Z,993.36
2019-04-28T12:02:05.653Z,993.32
2019-04-28T12:03:05.880Z,993.31
2019-04-28T12:04:06.109Z,993.28
2019-04-28T12:05:06.342Z,993.28
2019-04-28T12:06:06.578Z,993.34
2019-04-28T12:07:06.828Z,993.30
2019-04-28T12:08:07.075Z,993.32
2019-04-28T12:09:07.306Z,993.36
2019-04-28T12:10:07.533Z,993.34
2019-04-28T12:11:07.774Z,993.35
2019-04-28T12:12:08.690Z,993.34
2019-04-28T12:13:08.211Z,993.39
2019-04-28T12:14:08.435Z,993.38
2019-04-28T12:15:08.712Z,993.42
2019-04-28T12:16:08.944Z,993.45
2019-04-28T12:17:09.175Z,993.51
2019-04-28T12:18:09.409Z,993.56
2019-04-28T12:19:09.637Z,993.54
2019-04-28T12:20:09.870Z,993.54
2019-04-28T12:21:10.097Z,993.57
2019-04-28T12:22:10.326Z,993.50
2019-04-28T12:23:10.592Z,993.53
2019-04-28T12:24:10.895Z,993.46
2019-04-28T12:25:11.004Z,993.51
2019-04-28T12:26:11.236Z,993.45
2019-04-28T12:27:11.467Z,993.49
2019-04-28T12:28:11.701Z,993.46
2019-04-28T12:29:11.946Z,993.46
2019-04-28T12:30:12.174Z,993.44
2019-04-28T12:31:12.430Z,993.48